Time;durP1;ratioP1;P1;durP2;ratioP2;P2;SDS_P1;SDS_P2;PMS_P1;PMS_P2;Temp;Humidity;BMP_temperature;BMP_pressure;BME280_temperature;BME280_humidity;BME280_pressure;Samples;Min_cycle;Max_cycle;Signal;HPM_P1;HPM_P2
2022/09/26 00:00:48;;;;;;;1.20;1.20;;;;;;;9.24;100.00;99742.81;5010406;28;20197;-76
2022/09/26 00:03:13;;;;;;;5.33;0.90;;;;;;;9.21;100.00;99735.28;5010468;28;20192;-77
2022/09/26 00:05:39;;;;;;;0.50;0.50;;;;;;;9.18;100.00;99727.75;5010172;28;20207;-76
2022/09/26 00:08:06;;;;;;;0.30;0.30;;;;;;;9.14;100.00;99721.34;5010756;28;20172;-77
2022/09/26 00:10:32;;;;;;;0.10;0.10;;;;;;;9.11;100.00;99719.25;5010397;28;20203;-76
2022/09/26 00:12:58;;;;;;;0.20;0.20;;;;;;;9.08;100.00;99716.34;5010754;28;20177;-77
2022/09/26 00:15:23;;;;;;;0.60;0.50;;;;;;;9.05;100.00;99720.53;4992795;28;20651;-76
2022/09/26 00:17:48;;;;;;;1.37;0.40;;;;;;;9.05;100.00;99706.09;5010162;28;20235;-77
2022/09/26 00:20:14;;;;;;;0.30;0.30;;;;;;;9.03;100.00;99711.88;5010140;28;20177;-77
2022/09/26 00:22:39;;;;;;;0.70;0.70;;;;;;;9.01;100.00;99703.22;5010462;28;20212;-77
2022/09/26 00:25:05;;;;;;;3.33;0.57;;;;;;;9.01;100.00;99699.69;5010286;28;20188;-76
2022/09/26 00:27:30;;;;;;;0.33;0.33;;;;;;;8.98;100.00;99697.63;5009934;28;20189;-77
2022/09/26 00:29:55;;;;;;;0.40;0.40;;;;;;;8.97;100.00;99687.81;5010688;28;20176;-76
2022/09/26 00:32:21;;;;;;;0.47;0.40;;;;;;;8.99;100.00;99691.03;5010238;28;20379;-77
2022/09/26 00:34:46;;;;;;;1.10;1.10;;;;;;;8.97;100.00;99682.34;5013203;28;20184;-76
2022/09/26 00:37:11;;;;;;;0.60;0.53;;;;;;;8.99;100.00;99677.41;5013727;28;20239;-76
2022/09/26 00:39:36;;;;;;;0.53;0.53;;;;;;;9.00;100.00;99671.66;5013879;28;20176;-76
2022/09/26 00:42:02;;;;;;;0.20;0.20;;;;;;;9.01;100.00;99673.25;5013751;28;20346;-76
2022/09/26 00:44:53;;;;;;;0.30;0.30;;;;;;;9.01;100.00;99664.28;5013868;28;20198;-76
2022/09/26 00:47:40;;;;;;;0.20;0.20;;;;;;;9.03;100.00;99681.91;5013472;28;20211;-76
2022/09/26 00:50:22;;;;;;;0.10;0.10;;;;;;;9.10;100.00;99670.50;5013736;28;20177;-76
2022/09/26 00:52:55;;;;;;;0.33;0.33;;;;;;;9.12;100.00;99671.81;5014127;28;20728;-77
2022/09/26 00:55:24;;;;;;;0.20;0.20;;;;;;;9.16;100.00;99669.25;5013601;28;20186;-76
2022/09/26 00:57:58;;;;;;;0.00;0.00;;;;;;;9.19;100.00;99660.41;5013486;28;20264;-76
2022/09/26 01:00:23;;;;;;;0.00;0.00;;;;;;;9.23;100.00;99651.28;5013792;28;20201;-76
2022/09/26 01:02:51;;;;;;;0.00;0.00;;;;;;;9.29;100.00;99662.84;5013417;28;20639;-77
2022/09/26 01:05:18;;;;;;;0.33;0.33;;;;;;;9.32;100.00;99655.94;4995797;28;20181;-77
2022/09/26 01:07:45;;;;;;;1.13;0.20;;;;;;;9.37;100.00;99645.66;5013157;28;20180;-77
2022/09/26 01:10:11;;;;;;;0.10;0.10;;;;;;;9.42;100.00;99636.53;5013488;28;20208;-77
2022/09/26 01:12:37;;;;;;;0.57;0.50;;;;;;;9.42;100.00;99640.03;5013419;28;20211;-77
2022/09/26 01:15:06;;;;;;;0.00;0.00;;;;;;;9.43;100.00;99636.19;5013336;28;20176;-77
2022/09/26 01:17:31;;;;;;;0.10;0.10;;;;;;;9.45;100.00;99642.13;5013370;28;20176;-77
2022/09/26 01:20:09;;;;;;;0.10;0.10;;;;;;;9.45;100.00;99636.66;5013237;28;20246;-77
2022/09/26 01:22:46;;;;;;;0.10;0.10;;;;;;;9.43;100.00;99630.75;5013322;28;20224;-77
2022/09/26 01:25:34;;;;;;;0.00;0.00;;;;;;;9.44;100.00;99629.63;5013384;28;20214;-76
2022/09/26 01:28:37;;;;;;;0.00;0.00;;;;;;;9.52;100.00;99628.78;5012986;28;20180;-77
2022/09/26 01:31:37;;;;;;;0.00;0.00;;;;;;;9.52;100.00;99615.16;5012863;28;20188;-77
2022/09/26 01:34:16;;;;;;;0.00;0.00;;;;;;;9.61;100.00;99617.88;5013137;28;20546;-77
2022/09/26 01:36:44;;;;;;;0.40;0.40;;;;;;;9.64;100.00;99616.41;5012713;28;20205;-77
2022/09/26 01:40:01;;;;;;;0.00;0.00;;;;;;;9.61;100.00;99609.69;5013442;28;20196;-77
2022/09/26 01:42:45;;;;;;;0.00;0.00;;;;;;;9.66;100.00;99616.88;4951980;28;20311;-76
2022/09/26 01:45:17;;;;;;;0.00;0.00;;;;;;;9.68;100.00;99609.16;5012743;28;20445;-77
2022/09/26 01:48:04;;;;;;;0.10;0.10;;;;;;;9.71;100.00;99606.63;5012443;28;20177;-77
2022/09/26 01:50:34;;;;;;;0.00;0.00;;;;;;;9.61;100.00;99595.25;4995048;28;20180;-78
2022/09/26 01:53:06;;;;;;;0.00;0.00;;;;;;;9.62;100.00;99597.66;5012539;28;20263;-77
2022/09/26 01:55:39;;;;;;;0.00;0.00;;;;;;;9.61;100.00;99598.78;5012731;28;20181;-77
2022/09/26 01:58:22;;;;;;;0.00;0.00;;;;;;;9.72;100.00;99602.75;5012889;28;20173;-77
2022/09/26 02:00:48;;;;;;;0.00;0.00;;;;;;;9.61;100.00;99589.78;4994659;28;20562;-78
2022/09/26 02:03:26;;;;;;;0.00;0.00;;;;;;;9.78;100.00;99595.19;4994600;28;20185;-76
2022/09/26 02:05:57;;;;;;;0.00;0.00;;;;;;;9.63;100.00;99591.06;4994470;28;20172;-77
2022/09/26 02:08:34;;;;;;;0.00;0.00;;;;;;;9.79;100.00;99586.66;5012226;28;20707;-77
2022/09/26 02:11:08;;;;;;;0.00;0.00;;;;;;;9.68;100.00;99579.97;5012157;28;20176;-78
2022/09/26 02:13:55;;;;;;;0.00;0.00;;;;;;;9.78;100.00;99582.34;5012324;28;20233;-77
2022/09/26 02:16:59;;;;;;;0.43;0.43;;;;;;;9.76;100.00;99570.97;5012168;28;20173;-77
2022/09/26 02:19:34;;;;;;;0.00;0.00;;;;;;;9.72;99.95;99571.94;4998549;28;20192;-77
2022/09/26 02:22:00;;;;;;;0.20;0.20;;;;;;;9.67;99.75;99570.19;5011966;28;20239;-76
2022/09/26 02:24:27;;;;;;;0.57;0.50;;;;;;;9.63;100.00;99563.78;5012141;28;20175;-77
2022/09/26 02:26:53;;;;;;;0.00;0.00;;;;;;;9.61;100.00;99559.78;5011708;28;20184;-77
2022/09/26 02:29:19;;;;;;;0.60;0.60;;;;;;;9.57;100.00;99554.19;5011782;28;20203;-77
2022/09/26 02:31:49;;;;;;;0.67;0.67;;;;;;;9.52;100.00;99544.25;4994313;28;20204;-77
2022/09/26 02:34:15;;;;;;;0.43;0.43;;;;;;;9.50;99.76;99546.50;4994215;28;20179;-77
2022/09/26 02:36:41;;;;;;;0.10;0.10;;;;;;;9.45;100.00;99538.53;5011465;28;20176;-77
2022/09/26 02:39:09;;;;;;;2.20;1.37;;;;;;;9.44;100.00;99541.56;4994036;28;20241;-77
2022/09/26 02:41:40;;;;;;;0.10;0.10;;;;;;;9.44;100.00;99539.66;5011226;28;20794;-77
2022/09/26 02:44:36;;;;;;;0.00;0.00;;;;;;;9.40;100.00;99530.53;5011707;28;20177;-77
2022/09/26 02:47:07;;;;;;;0.37;0.37;;;;;;;9.40;100.00;99521.53;5011199;28;20180;-77
2022/09/26 02:50:00;;;;;;;0.33;0.33;;;;;;;9.40;100.00;99529.69;5011649;28;20192;-76
2022/09/26 02:52:51;;;;;;;1.87;0.63;;;;;;;9.39;100.00;99523.44;5011422;28;20188;-77
2022/09/26 02:55:41;;;;;;;0.97;0.97;;;;;;;9.37;100.00;99514.00;5011399;28;20696;-77
2022/09/26 02:58:28;;;;;;;0.30;0.30;;;;;;;9.35;100.00;99508.88;5011185;28;20658;-77
2022/09/26 03:01:09;;;;;;;0.37;0.37;;;;;;;9.36;100.00;99504.22;4993519;28;20283;-77
2022/09/26 03:03:41;;;;;;;0.00;0.00;;;;;;;9.36;100.00;99505.03;4993647;28;20561;-77
2022/09/26 03:06:11;;;;;;;0.17;0.17;;;;;;;9.37;100.00;99500.38;5010928;28;20632;-77
2022/09/26 03:08:41;;;;;;;7.93;0.70;;;;;;;9.39;100.00;99500.84;5011453;28;20177;-77
2022/09/26 03:11:09;;;;;;;3.93;0.73;;;;;;;9.38;99.82;99494.59;5011038;28;20176;-77
2022/09/26 03:13:38;;;;;;;0.97;0.90;;;;;;;9.40;99.61;99494.25;5011190;28;20176;-77
2022/09/26 03:16:04;;;;;;;0.73;0.53;;;;;;;9.36;99.72;99485.16;5010786;28;20625;-76
2022/09/26 03:18:37;;;;;;;0.20;0.20;;;;;;;9.38;99.53;99482.88;5011078;28;20185;-77
2022/09/26 03:21:03;;;;;;;0.40;0.40;;;;;;;9.40;99.36;99481.47;4993415;28;20606;-77
2022/09/26 03:23:28;;;;;;;0.20;0.10;;;;;;;9.44;99.32;99465.25;5010985;28;20177;-76
2022/09/26 03:26:07;;;;;;;0.87;0.60;;;;;;;9.41;99.28;99466.69;5010764;28;20663;-77
2022/09/26 03:28:32;;;;;;;0.40;0.40;;;;;;;9.42;98.82;99462.03;4993148;28;20644;-77
2022/09/26 03:30:57;;;;;;;1.77;1.67;;;;;;;9.40;98.90;99453.38;5010897;28;20371;-77
2022/09/26 03:33:22;;;;;;;0.43;0.43;;;;;;;9.44;99.12;99459.78;5010969;28;20176;-77
2022/09/26 03:35:48;;;;;;;0.30;0.30;;;;;;;9.42;98.98;99453.88;5010525;28;20172;-76
2022/09/26 03:38:13;;;;;;;0.20;0.20;;;;;;;9.42;98.72;99457.38;5011023;28;20234;-77
2022/09/26 03:40:41;;;;;;;0.20;0.20;;;;;;;9.42;99.02;99457.38;5010491;28;20235;-77
2022/09/26 03:43:06;;;;;;;0.40;0.40;;;;;;;9.43;99.09;99458.19;5010862;28;20239;-77
2022/09/26 03:45:35;;;;;;;1.33;1.23;;;;;;;9.42;99.26;99451.13;5010601;28;20270;-77
2022/09/26 03:48:00;;;;;;;4.23;3.00;;;;;;;9.41;98.98;99461.25;5010506;28;20275;-76
2022/09/26 03:50:26;;;;;;;1.37;1.27;;;;;;;9.42;98.42;99453.88;5010559;28;20256;-77
2022/09/26 03:52:51;;;;;;;8.93;2.23;;;;;;;9.42;98.75;99449.22;5010599;28;20628;-76
2022/09/26 03:55:17;;;;;;;11.90;1.23;;;;;;;9.41;98.68;99444.88;5010454;28;20181;-77
2022/09/26 03:57:42;;;;;;;0.70;0.70;;;;;;;9.39;98.36;99436.22;5010262;28;20184;-77
2022/09/26 04:00:08;;;;;;;0.47;0.47;;;;;;;9.39;98.62;99440.88;5010739;28;20650;-77
2022/09/26 04:02:33;;;;;;;0.17;0.10;;;;;;;9.38;98.36;99431.88;5010601;28;20223;-77
2022/09/26 04:04:59;;;;;;;0.10;0.10;;;;;;;9.36;98.42;99427.91;5010691;28;20588;-77
2022/09/26 04:07:25;;;;;;;0.47;0.47;;;;;;;9.34;98.21;99425.50;5010287;28;20172;-77
2022/09/26 04:09:50;;;;;;;1.00;1.00;;;;;;;9.33;98.81;99426.63;5013779;28;20272;-77
2022/09/26 04:12:15;;;;;;;1.20;1.03;;;;;;;9.32;98.27;99425.03;5014582;28;20203;-77
2022/09/26 04:14:43;;;;;;;0.77;0.70;;;;;;;9.31;98.42;99418.00;5014657;28;20654;-76
2022/09/26 04:17:09;;;;;;;0.87;0.70;;;;;;;9.30;98.60;99410.94;5014105;28;20255;-77
2022/09/26 04:19:35;;;;;;;0.93;0.83;;;;;;;9.33;98.71;99413.00;5014367;28;20260;-76
2022/09/26 04:22:00;;;;;;;0.43;0.43;;;;;;;9.32;98.73;99408.69;5014270;28;20683;-77
2022/09/26 04:24:25;;;;;;;0.20;0.20;;;;;;;9.33;98.27;99402.09;5014073;28;20585;-77
2022/09/26 04:26:51;;;;;;;0.60;0.60;;;;;;;9.34;98.34;99405.63;5013990;28;20707;-77
2022/09/26 04:29:16;;;;;;;0.60;0.60;;;;;;;9.33;98.28;99393.13;5014409;28;20243;-76
2022/09/26 04:31:42;;;;;;;12.63;1.17;;;;;;;9.33;98.35;99391.19;5014140;28;20180;-77
2022/09/26 04:34:09;;;;;;;0.00;0.00;;;;;;;9.35;98.78;99388.13;5014202;28;20554;-77
2022/09/26 04:36:35;;;;;;;0.20;0.20;;;;;;;9.34;98.77;99387.34;5013793;28;20177;-77
2022/09/26 04:39:00;;;;;;;0.43;0.43;;;;;;;9.35;98.52;99382.69;5013887;28;20176;-76
2022/09/26 04:41:27;;;;;;;0.00;0.00;;;;;;;9.36;98.10;99385.09;5013481;28;20227;-76
2022/09/26 04:43:53;;;;;;;0.33;0.33;;;;;;;9.34;98.45;99376.44;5013938;28;20184;-77
2022/09/26 04:46:20;;;;;;;0.20;0.20;;;;;;;9.36;98.70;99370.66;5013504;28;20628;-77
2022/09/26 04:48:46;;;;;;;0.00;0.00;;;;;;;9.35;98.21;99377.25;5013806;28;20239;-77
2022/09/26 04:51:14;;;;;;;0.50;0.50;;;;;;;9.34;98.83;99379.16;5013496;28;20591;-77
2022/09/26 04:53:40;;;;;;;0.40;0.33;;;;;;;9.33;98.73;99374.84;5013926;28;20233;-76
2022/09/26 04:56:08;;;;;;;0.77;0.57;;;;;;;9.33;98.70;99366.66;5013523;28;20259;-76
2022/09/26 04:58:34;;;;;;;0.17;0.17;;;;;;;9.34;98.96;99360.09;5013975;28;20176;-76
2022/09/26 05:01:06;;;;;;;0.00;0.00;;;;;;;9.32;98.70;99365.06;4995807;28;20204;-77
2022/09/26 05:03:31;;;;;;;0.00;0.00;;;;;;;9.32;99.15;99356.91;5013625;28;20615;-77
2022/09/26 05:05:57;;;;;;;5.03;0.80;;;;;;;9.27;98.86;99357.09;5013669;28;20576;-76
2022/09/26 05:08:24;;;;;;;0.30;0.30;;;;;;;9.30;98.99;99364.59;5020048;28;20222;-77
2022/09/26 05:10:55;;;;;;;0.00;0.00;;;;;;;9.30;98.50;99358.34;5013427;28;20259;-77
2022/09/26 05:13:25;;;;;;;0.20;0.20;;;;;;;9.30;98.43;99355.63;5013625;28;20173;-77
2022/09/26 05:15:54;;;;;;;0.10;0.10;;;;;;;9.29;98.60;99341.22;5013265;28;20562;-77
2022/09/26 05:18:23;;;;;;;0.20;0.20;;;;;;;9.24;98.65;99341.38;5013273;28;20180;-77
2022/09/26 05:20:49;;;;;;;0.00;0.00;;;;;;;9.26;98.29;99336.41;5012902;28;20204;-77
2022/09/26 05:26:18;;;;;;;0.33;0.33;;;;;;;9.22;98.53;99338.97;5013378;28;20523;-76
2022/09/26 05:26:18;;;;;;;0.07;0.07;;;;;;;9.21;98.98;99334.66;5012978;28;20193;-77
2022/09/26 05:28:45;;;;;;;0.00;0.00;;;;;;;9.24;99.34;99323.09;5013343;28;20172;-76
2022/09/26 05:31:10;;;;;;;0.00;0.00;;;;;;;9.22;98.79;99314.47;4995440;28;20184;-77
2022/09/26 05:33:37;;;;;;;0.33;0.33;;;;;;;9.22;98.75;99324.56;5013044;28;20637;-77
2022/09/26 05:36:03;;;;;;;5.10;0.50;;;;;;;9.24;99.23;99323.09;5012774;28;20180;-77
2022/09/26 05:38:28;;;;;;;0.10;0.10;;;;;;;9.28;98.64;99325.19;5012961;28;20176;-76
2022/09/26 05:40:57;;;;;;;0.00;0.00;;;;;;;9.30;98.56;99320.19;5012268;28;20204;-77
2022/09/26 05:43:28;;;;;;;0.20;0.20;;;;;;;9.36;98.29;99324.31;5012855;28;20231;-77
2022/09/26 05:46:04;;;;;;;0.20;0.20;;;;;;;9.36;97.86;99316.94;5012588;28;20176;-77
2022/09/26 05:48:31;;;;;;;0.53;0.53;;;;;;;9.36;98.04;99322.38;5012898;28;20469;-77
2022/09/26 05:51:07;;;;;;;0.00;0.00;;;;;;;9.35;97.93;99315.34;5012622;28;20192;-76
2022/09/26 05:53:33;;;;;;;0.00;0.00;;;;;;;9.38;98.16;99311.16;5013074;28;20196;-77
2022/09/26 05:55:58;;;;;;;0.00;0.00;;;;;;;9.38;97.91;99306.50;5012276;28;20259;-77
2022/09/26 05:58:31;;;;;;;0.00;0.00;;;;;;;9.39;97.78;99305.38;5012596;28;20251;-77
2022/09/26 06:01:03;;;;;;;0.00;0.00;;;;;;;9.40;97.42;99309.72;5012372;28;20208;-77
2022/09/26 06:03:33;;;;;;;0.30;0.27;;;;;;;9.39;97.79;99302.63;5012307;28;20192;-77
2022/09/26 06:06:10;;;;;;;0.00;0.00;;;;;;;9.53;97.63;99302.38;5012180;28;20171;-77
2022/09/26 06:08:37;;;;;;;0.20;0.20;;;;;;;9.57;97.19;99303.34;4994789;28;20176;-77
2022/09/26 06:11:17;;;;;;;1.60;0.50;;;;;;;9.62;96.54;99305.84;5012289;28;20196;-77
2022/09/26 06:13:44;;;;;;;0.10;0.10;;;;;;;9.69;96.36;99299.84;5012357;28;20170;-77
2022/09/26 06:16:13;;;;;;;0.27;0.20;;;;;;;9.73;96.35;99303.53;5011752;28;20512;-77
2022/09/26 06:18:40;;;;;;;0.00;0.00;;;;;;;9.77;95.85;99301.72;5012323;28;20179;-77
2022/09/26 06:21:08;;;;;;;0.00;0.00;;;;;;;9.85;95.81;99292.69;5011923;28;20668;-76
2022/09/26 06:23:34;;;;;;;0.00;0.00;;;;;;;9.90;95.08;99284.28;5012072;28;20172;-77
2022/09/26 06:26:05;;;;;;;0.00;0.00;;;;;;;10.00;95.07;99283.06;5011726;28;20243;-76
2022/09/26 06:28:30;;;;;;;0.00;0.00;;;;;;;10.04;94.78;99282.06;5011911;28;20557;-77
2022/09/26 06:30:56;;;;;;;0.20;0.20;;;;;;;10.01;94.25;99274.53;5011045;28;20176;-77
2022/09/26 06:33:22;;;;;;;0.00;0.00;;;;;;;9.98;94.51;99261.59;5011919;28;20231;-77
2022/09/26 06:36:02;;;;;;;0.00;0.00;;;;;;;10.05;94.22;99267.28;5011741;28;20176;-77
2022/09/26 06:38:28;;;;;;;1.40;0.40;;;;;;;10.08;94.47;99265.81;5011901;28;20207;-77
2022/09/26 06:40:53;;;;;;;0.10;0.10;;;;;;;10.10;93.80;99264.31;5011251;28;20201;-77
2022/09/26 06:43:19;;;;;;;0.10;0.10;;;;;;;10.14;93.43;99264.47;4994034;28;20180;-77
2022/09/26 06:45:44;;;;;;;0.00;0.00;;;;;;;10.16;93.79;99255.94;5011391;28;20256;-77
2022/09/26 06:48:10;;;;;;;0.30;0.30;;;;;;;10.20;94.22;99262.31;5011615;28;20177;-77
2022/09/26 06:50:36;;;;;;;0.00;0.00;;;;;;;10.19;93.88;99260.72;5011472;28;20168;-77
2022/09/26 06:53:03;;;;;;;0.27;0.27;;;;;;;10.24;94.00;99258.59;5011971;28;20173;-76
2022/09/26 06:55:28;;;;;;;0.37;0.37;;;;;;;10.26;93.61;99250.84;5011369;28;20687;-77
2022/09/26 06:57:54;;;;;;;0.00;0.00;;;;;;;10.29;93.36;99250.19;5011322;28;20341;-77
2022/09/26 07:00:19;;;;;;;0.00;0.00;;;;;;;10.37;93.29;99251.22;5011316;28;20209;-76
2022/09/26 07:02:49;;;;;;;0.27;0.27;;;;;;;10.39;92.94;99251.69;5011201;28;20216;-77
2022/09/26 07:05:15;;;;;;;0.00;0.00;;;;;;;10.41;92.88;99244.75;4993763;28;20184;-76
2022/09/26 07:07:41;;;;;;;0.10;0.10;;;;;;;10.40;93.29;99245.06;5011256;28;20589;-77
2022/09/26 07:10:07;;;;;;;0.00;0.00;;;;;;;10.37;92.88;99249.28;5011139;28;20172;-77
2022/09/26 07:12:39;;;;;;;0.87;0.87;;;;;;;10.38;93.26;99253.63;4993604;28;20189;-77
2022/09/26 07:15:05;;;;;;;0.20;0.20;;;;;;;10.46;93.31;99251.94;5011242;28;20180;-77
2022/09/26 07:17:30;;;;;;;0.20;0.20;;;;;;;10.46;93.09;99254.66;5010744;28;20187;-77
2022/09/26 07:19:55;;;;;;;0.00;0.00;;;;;;;10.52;93.17;99247.03;5011120;28;20211;-77
2022/09/26 07:22:20;;;;;;;0.97;0.97;;;;;;;10.54;92.08;99239.28;5011360;28;20200;-77
2022/09/26 07:24:48;;;;;;;0.43;0.20;;;;;;;10.55;91.89;99249.88;5011047;28;20179;-77
2022/09/26 07:27:14;;;;;;;0.30;0.30;;;;;;;10.57;91.88;99244.88;5010860;28;20631;-77
2022/09/26 07:29:39;;;;;;;0.47;0.47;;;;;;;10.65;91.83;99241.22;5011063;28;20180;-77
2022/09/26 07:32:04;;;;;;;0.70;0.70;;;;;;;10.70;91.21;99240.19;5010848;28;20168;-76
2022/09/26 07:34:30;;;;;;;0.00;0.00;;;;;;;10.80;91.19;99237.03;5010886;28;20581;-77
2022/09/26 07:36:56;;;;;;;0.40;0.40;;;;;;;10.92;91.23;99233.50;5010532;28;20172;-78
2022/09/26 07:39:21;;;;;;;1.90;1.40;;;;;;;10.97;90.16;99230.50;5010706;28;20173;-76
2022/09/26 07:41:47;;;;;;;2.27;1.00;;;;;;;10.99;89.91;99239.16;5010402;28;20204;-77
2022/09/26 07:44:13;;;;;;;0.13;0.13;;;;;;;11.13;89.97;99238.81;5010715;28;20640;-77
2022/09/26 07:52:06;;;;;;;4.97;0.67;;;;;;;11.52;87.61;99234.50;5010952;28;20211;-76
2022/09/26 07:54:31;;;;;;;0.30;0.30;;;;;;;11.65;87.33;99236.03;5010700;28;20203;-77
2022/09/26 07:56:57;;;;;;;1.20;1.20;;;;;;;11.74;86.53;99223.03;5010471;28;20211;-77
2022/09/26 07:59:23;;;;;;;0.00;0.00;;;;;;;11.89;87.44;99225.03;5010445;28;20172;-76
2022/09/26 08:01:48;;;;;;;0.30;0.30;;;;;;;11.86;85.74;99230.38;5010460;28;20214;-76
2022/09/26 08:04:14;;;;;;;3.63;2.07;;;;;;;11.78;84.49;99221.16;5010484;28;20238;-76
2022/09/26 08:06:40;;;;;;;2.03;1.40;;;;;;;11.73;84.56;99215.97;5010548;28;20208;-77
2022/09/26 08:09:05;;;;;;;3.23;1.47;;;;;;;11.67;85.00;99205.59;5010462;28;20208;-76
2022/09/26 08:11:31;;;;;;;1.00;0.83;;;;;;;11.70;85.29;99211.16;5010356;28;20525;-77
2022/09/26 08:13:56;;;;;;;0.00;0.00;;;;;;;11.82;85.85;99213.06;5010410;28;20512;-77
2022/09/26 08:16:22;;;;;;;0.00;0.00;;;;;;;11.92;85.35;99204.38;5010570;28;20172;-76
2022/09/26 08:18:52;;;;;;;1.30;1.20;;;;;;;11.97;84.38;99195.88;5010448;28;20231;-77
2022/09/26 08:21:17;;;;;;;0.70;0.10;;;;;;;12.02;85.12;99194.84;5010141;28;20200;-76
2022/09/26 08:23:43;;;;;;;0.80;0.80;;;;;;;12.07;83.88;99206.34;5010431;28;20636;-76
2022/09/26 08:26:09;;;;;;;0.50;0.20;;;;;;;12.04;83.71;99198.81;4992473;28;20168;-77
2022/09/26 08:28:36;;;;;;;0.17;0.17;;;;;;;12.09;83.70;99204.03;5010190;28;20260;-77
2022/09/26 08:31:03;;;;;;;19.13;0.83;;;;;;;12.14;84.48;99195.56;5010146;28;20180;-77
2022/09/26 08:33:31;;;;;;;0.87;0.70;;;;;;;12.12;83.93;99200.59;5010272;28;20181;-77
2022/09/26 08:36:02;;;;;;;1.73;1.63;;;;;;;12.05;83.41;99199.63;5010007;28;20640;-76
2022/09/26 08:38:27;;;;;;;1.37;1.27;;;;;;;12.02;84.04;99194.84;5010398;28;20168;-77
2022/09/26 08:41:15;;;;;;;1.70;1.60;;;;;;;11.99;83.54;99196.34;5010065;28;20239;-77
2022/09/26 08:44:13;;;;;;;0.20;0.20;;;;;;;11.98;84.17;99191.22;5010293;28;20545;-77
2022/09/26 08:47:00;;;;;;;1.33;0.57;;;;;;;12.05;84.15;99183.19;4984973;28;20243;-76
2022/09/26 08:49:58;;;;;;;1.57;1.10;;;;;;;12.15;83.33;99179.91;4992571;28;20508;-77
2022/09/26 08:52:45;;;;;;;1.50;0.87;;;;;;;12.31;83.91;99183.47;5004855;28;20193;-76
2022/09/26 08:55:25;;;;;;;0.57;0.57;;;;;;;12.29;81.56;99188.50;5012173;28;20212;-76
2022/09/26 08:57:57;;;;;;;2.07;1.97;;;;;;;12.23;81.01;99169.94;5013356;28;20656;-77
2022/09/26 09:00:25;;;;;;;0.67;0.67;;;;;;;12.35;81.21;99170.66;5013656;28;20211;-76
2022/09/26 09:03:14;;;;;;;1.13;0.63;;;;;;;12.49;81.12;99167.47;4995827;28;20212;-77
2022/09/26 09:05:48;;;;;;;2.03;1.87;;;;;;;12.57;81.28;99166.47;5013346;28;20172;-77
2022/09/26 09:08:21;;;;;;;1.17;1.00;;;;;;;12.60;81.08;99167.72;5013775;28;20256;-77
2022/09/26 09:11:02;;;;;;;1.67;1.57;;;;;;;12.71;80.69;99163.25;5013455;28;20578;-77
2022/09/26 09:14:05;;;;;;;0.43;0.43;;;;;;;12.72;81.01;99154.69;5013632;28;20181;-76
2022/09/26 09:16:58;;;;;;;1.37;1.10;;;;;;;12.72;79.97;99151.94;4983942;28;20189;-77
2022/09/26 09:19:49;;;;;;;2.47;2.27;;;;;;;12.71;79.87;99144.88;5013253;28;20172;-77
2022/09/26 09:22:17;;;;;;;0.40;0.33;;;;;;;12.63;79.18;99153.31;5013163;28;20248;-77
2022/09/26 09:24:57;;;;;;;0.53;0.53;;;;;;;12.57;79.45;99149.22;5013101;28;20245;-76
2022/09/26 09:28:04;;;;;;;0.50;0.50;;;;;;;12.45;79.47;99145.47;5013081;28;20172;-76
2022/09/26 09:30:46;;;;;;;0.00;0.00;;;;;;;12.48;80.68;99138.47;4986484;28;20191;-76
2022/09/26 09:33:20;;;;;;;0.00;0.00;;;;;;;12.64;81.16;99147.47;5013255;28;20188;-77
2022/09/26 09:36:08;;;;;;;0.83;0.67;;;;;;;12.76;80.64;99127.38;5012771;28;20180;-77
2022/09/26 09:38:37;;;;;;;0.10;0.10;;;;;;;12.81;78.68;99133.38;5004507;28;20281;-77
2022/09/26 09:41:40;;;;;;;9.90;0.90;;;;;;;13.01;78.80;99128.69;5012512;28;20207;-76
2022/09/26 09:44:37;;;;;;;0.10;0.10;;;;;;;13.06;77.04;99128.41;4947014;28;20245;-77
2022/09/26 09:47:10;;;;;;;0.90;0.90;;;;;;;13.14;76.68;99128.56;5015066;28;20211;-77
2022/09/26 09:49:35;;;;;;;0.13;0.13;;;;;;;13.27;76.83;99124.53;5012922;28;20167;-77
2022/09/26 09:52:09;;;;;;;4.87;0.87;;;;;;;13.61;77.13;99122.88;5012671;28;20255;-77
2022/09/26 09:55:01;;;;;;;0.60;0.60;;;;;;;13.60;74.33;99119.31;5012672;28;20176;-76
2022/09/26 09:57:54;;;;;;;0.10;0.10;;;;;;;13.75;74.82;99108.59;5012295;28;20173;-77
2022/09/26 10:00:21;;;;;;;0.20;0.20;;;;;;;13.67;74.44;99113.94;5012588;28;20169;-77
2022/09/26 10:03:00;;;;;;;15.50;2.63;;;;;;;13.71;73.71;99111.25;4994826;28;20298;-76
2022/09/26 10:05:44;;;;;;;0.40;0.40;;;;;;;13.53;72.34;99110.94;5012296;28;20172;-77
2022/09/26 10:08:13;;;;;;;0.33;0.33;;;;;;;13.36;71.39;99094.94;5012497;28;20267;-77
2022/09/26 10:10:58;;;;;;;1.03;0.10;;;;;;;13.46;73.41;99099.06;5012321;28;20239;-76
2022/09/26 10:13:25;;;;;;;0.30;0.20;;;;;;;13.44;72.06;99096.66;4995079;28;20571;-77
2022/09/26 10:15:59;;;;;;;0.30;0.30;;;;;;;13.57;72.33;99094.53;5011948;28;20172;-77
2022/09/26 10:18:25;;;;;;;0.00;0.00;;;;;;;13.56;71.48;99088.25;5012187;28;20179;-77
2022/09/26 10:20:55;;;;;;;0.47;0.47;;;;;;;13.54;72.54;99087.03;4994332;28;20173;-76
2022/09/26 10:23:31;;;;;;;0.90;0.37;;;;;;;13.56;71.45;99076.50;4994442;28;20169;-76
2022/09/26 10:26:03;;;;;;;0.40;0.40;;;;;;;13.54;70.92;99073.31;5011771;28;20172;-77
2022/09/26 10:28:36;;;;;;;0.10;0.10;;;;;;;13.61;71.15;99077.00;5011977;28;20173;-76
2022/09/26 10:31:07;;;;;;;0.33;0.33;;;;;;;13.78;71.67;99074.94;4994853;28;20223;-76
2022/09/26 10:33:34;;;;;;;0.10;0.10;;;;;;;13.80;70.63;99069.84;5011901;28;20168;-76
2022/09/26 10:36:16;;;;;;;0.00;0.00;;;;;;;13.78;69.48;99063.94;5012047;28;20275;-76
2022/09/26 10:41:41;;;;;;;1.03;0.20;;;;;;;13.94;69.58;99073.63;5011603;28;20198;-76
2022/09/26 10:44:21;;;;;;;0.00;0.00;;;;;;;13.99;69.58;99067.03;5011817;28;20177;-77
2022/09/26 10:46:49;;;;;;;2.53;0.60;;;;;;;13.95;69.62;99071.69;5011357;28;20172;-76
2022/09/26 10:49:16;;;;;;;0.20;0.20;;;;;;;13.81;69.37;99057.72;5011502;28;20208;-77
2022/09/26 10:51:49;;;;;;;0.37;0.37;;;;;;;13.65;69.23;99061.38;4993879;28;20695;-76
2022/09/26 10:54:17;;;;;;;0.00;0.00;;;;;;;13.59;69.83;99057.34;5011528;28;20172;-76
2022/09/26 10:56:46;;;;;;;0.10;0.10;;;;;;;13.60;69.95;99072.69;5011270;28;20172;-77
2022/09/26 10:59:17;;;;;;;0.00;0.00;;;;;;;13.45;69.48;99067.25;5011436;28;20169;-77
2022/09/26 11:01:46;;;;;;;0.50;0.50;;;;;;;13.38;70.53;99057.75;5011313;28;20603;-76
2022/09/26 11:07:04;;;;;;;3.53;1.07;;;;;;;13.33;71.48;99057.28;4980219;28;20200;-76
2022/09/26 11:09:30;;;;;;;3.93;0.83;;;;;;;13.33;72.21;99046.31;5011230;28;20249;-76
2022/09/26 11:11:55;;;;;;;0.17;0.17;;;;;;;13.22;71.39;99051.59;5011122;28;20188;-76
2022/09/26 11:14:31;;;;;;;0.20;0.20;;;;;;;13.19;71.26;99043.28;5011165;28;20179;-76
2022/09/26 11:16:58;;;;;;;0.30;0.30;;;;;;;13.22;71.96;99042.56;5010435;28;20255;-76
2022/09/26 11:19:25;;;;;;;0.30;0.30;;;;;;;13.31;71.45;99035.69;5011057;28;20200;-76
2022/09/26 11:22:00;;;;;;;0.30;0.30;;;;;;;13.32;71.74;99033.75;5010965;28;20208;-76
2022/09/26 11:24:45;;;;;;;1.23;1.23;;;;;;;13.27;71.67;99040.31;5011482;28;20177;-76
2022/09/26 11:27:19;;;;;;;0.10;0.10;;;;;;;13.32;72.33;99020.03;5010708;28;20180;-76
2022/09/26 11:30:01;;;;;;;0.60;0.60;;;;;;;13.30;71.60;99022.31;5010868;28;20685;-76
2022/09/26 11:32:39;;;;;;;1.97;1.13;;;;;;;13.37;72.03;99030.69;5010843;28;20175;-76
2022/09/26 11:35:11;;;;;;;0.33;0.20;;;;;;;13.37;71.79;99017.78;5010890;28;20173;-76
2022/09/26 11:37:49;;;;;;;3.13;0.47;;;;;;;13.42;72.16;99008.44;5010876;28;20669;-76
2022/09/26 11:40:33;;;;;;;0.00;0.00;;;;;;;13.44;72.25;99010.81;5010705;28;20184;-76
2022/09/26 11:43:23;;;;;;;0.60;0.40;;;;;;;13.45;71.65;99015.13;5010723;28;20695;-76
2022/09/26 11:46:13;;;;;;;0.30;0.30;;;;;;;13.60;72.30;99006.81;5010562;28;20260;-76
2022/09/26 11:48:51;;;;;;;0.20;0.20;;;;;;;13.59;71.35;99001.66;5010673;28;20268;-76
2022/09/26 11:52:00;;;;;;;1.13;1.03;;;;;;;13.75;72.43;98994.09;5010681;28;20184;-76
2022/09/26 11:54:49;;;;;;;0.50;0.50;;;;;;;13.70;71.29;98999.88;5010707;28;20176;-76
2022/09/26 11:57:58;;;;;;;0.07;0.07;;;;;;;13.72;71.47;99002.25;5010338;28;20188;-76
2022/09/26 12:00:37;;;;;;;0.53;0.50;;;;;;;13.53;70.82;98992.94;5010538;28;20173;-76
2022/09/26 12:03:25;;;;;;;0.50;0.50;;;;;;;13.41;71.06;98990.38;5010568;28;20236;-76
2022/09/26 12:06:16;;;;;;;0.00;0.00;;;;;;;13.52;72.88;98988.63;4993069;28;20346;-77
2022/09/26 12:08:59;;;;;;;0.00;0.00;;;;;;;13.53;72.90;98983.94;5010524;28;20172;-76
2022/09/26 12:12:00;;;;;;;3.30;0.50;;;;;;;13.33;71.98;98985.94;5010519;28;20172;-76